createdAt,value
2022-11-19T00:00:22.413Z,988
2022-11-19T00:01:22.358Z,961
2022-11-19T00:03:22.570Z,802
2022-11-19T00:04:22.406Z,993
2022-11-19T00:05:22.414Z,1074
2022-11-19T00:06:22.358Z,878
2022-11-19T00:08:22.574Z,1065
2022-11-19T00:09:22.390Z,955
2022-11-19T00:10:22.353Z,1113
2022-11-19T00:11:22.428Z,950
2022-11-19T00:13:22.563Z,1163
2022-11-19T00:14:22.368Z,1074
2022-11-19T00:15:22.361Z,1103
2022-11-19T00:16:22.371Z,1088
2022-11-19T00:18:22.565Z,800
2022-11-19T00:19:22.418Z,887
2022-11-19T00:20:22.430Z,1179
2022-11-19T00:21:22.426Z,966
2022-11-19T00:23:22.569Z,957
2022-11-19T00:24:22.370Z,1018
2022-11-19T00:25:22.414Z,976
2022-11-19T00:26:22.364Z,821
2022-11-19T00:28:22.562Z,747
2022-11-19T00:29:22.752Z,752
2022-11-19T00:30:46.171Z,844
2022-11-19T00:31:22.410Z,1016
2022-11-19T00:33:22.576Z,923
2022-11-19T00:34:22.417Z,811
2022-11-19T00:35:22.418Z,908
2022-11-19T00:36:22.434Z,870
2022-11-19T00:38:22.568Z,897
2022-11-19T00:39:22.653Z,782
2022-11-19T00:40:22.368Z,816
2022-11-19T00:41:22.376Z,1039
2022-11-19T00:43:22.542Z,772
2022-11-19T00:44:22.381Z,845
2022-11-19T00:45:22.450Z,879
2022-11-19T00:46:22.397Z,1085
2022-11-19T00:48:22.555Z,1088
2022-11-19T00:49:22.456Z,1012
2022-11-19T00:50:22.425Z,1215
2022-11-19T00:51:22.450Z,940
2022-11-19T00:53:22.566Z,949
2022-11-19T00:54:22.421Z,855
2022-11-19T00:55:22.372Z,1044
2022-11-19T00:56:22.378Z,1120
2022-11-19T00:58:22.561Z,891
2022-11-19T00:59:22.424Z,895
2022-11-19T01:00:22.470Z,910
2022-11-19T01:01:22.482Z,1063
2022-11-19T01:03:22.562Z,1103
2022-11-19T01:04:22.449Z,832
2022-11-19T01:05:22.430Z,797
2022-11-19T01:06:22.433Z,944
2022-11-19T01:08:22.586Z,865
2022-11-19T01:09:22.418Z,814
2022-11-19T01:10:22.433Z,993
2022-11-19T01:11:22.453Z,1013
2022-11-19T01:13:22.583Z,814
2022-11-19T01:14:22.458Z,1054
2022-11-19T01:15:22.438Z,985
2022-11-19T01:16:22.438Z,881
2022-11-19T01:18:22.588Z,1054
2022-11-19T01:19:22.653Z,1083
2022-11-19T01:20:22.397Z,1094
2022-11-19T01:21:22.383Z,883
2022-11-19T01:23:22.582Z,889
2022-11-19T01:24:22.427Z,1007
2022-11-19T01:25:22.371Z,897
2022-11-19T01:26:22.388Z,1071
2022-11-19T01:28:22.593Z,865
2022-11-19T01:29:22.436Z,1013
2022-11-19T01:30:22.439Z,807
2022-11-19T01:31:22.444Z,742
2022-11-19T01:33:22.699Z,816
2022-11-19T01:34:22.383Z,782
2022-11-19T01:35:22.392Z,820
2022-11-19T01:36:22.434Z,1032
2022-11-19T01:38:22.591Z,844
2022-11-19T01:39:22.454Z,753
2022-11-19T01:40:22.398Z,742
2022-11-19T01:41:22.383Z,761
2022-11-19T01:43:22.589Z,933
2022-11-19T01:44:22.390Z,927
2022-11-19T01:45:22.396Z,933
2022-11-19T01:46:22.389Z,921
2022-11-19T01:48:22.583Z,814
2022-11-19T01:49:22.553Z,1007
2022-11-19T01:50:22.397Z,804
2022-11-19T01:51:22.432Z,986
2022-11-19T01:53:22.583Z,806
2022-11-19T01:54:22.443Z,748
2022-11-19T01:55:22.469Z,919
2022-11-19T01:56:22.402Z,753
2022-11-19T01:58:22.586Z,748
2022-11-19T01:59:22.617Z,897
2022-11-19T02:00:22.395Z,908
2022-11-19T02:01:22.465Z,733
2022-11-19T02:03:22.574Z,726
2022-11-19T02:04:22.478Z,731
2022-11-19T02:05:22.395Z,894
2022-11-19T02:06:22.438Z,900
2022-11-19T02:08:22.578Z,760
2022-11-19T02:09:22.396Z,772
2022-11-19T02:10:22.471Z,967
2022-11-19T02:11:22.400Z,779
2022-11-19T02:13:22.646Z,950
2022-11-19T02:14:22.468Z,946
2022-11-19T02:15:22.449Z,784
2022-11-19T02:16:22.450Z,770
2022-11-19T02:18:22.580Z,772
2022-11-19T02:19:22.446Z,774
2022-11-19T02:20:22.400Z,788
2022-11-19T02:21:22.479Z,733
2022-11-19T02:23:22.584Z,906
2022-11-19T02:24:22.483Z,863
2022-11-19T02:25:22.467Z,709
2022-11-19T02:26:22.447Z,878
2022-11-19T02:28:22.573Z,878
2022-11-19T02:29:22.457Z,784
2022-11-19T02:30:22.455Z,688
2022-11-19T02:31:22.461Z,659
2022-11-19T02:33:22.590Z,813
2022-11-19T02:34:22.454Z,786
2022-11-19T02:35:22.407Z,659
2022-11-19T02:36:22.414Z,763
2022-11-19T02:38:22.659Z,659
2022-11-19T02:39:22.486Z,797
2022-11-19T02:40:22.407Z,820
2022-11-19T02:41:22.404Z,698
2022-11-19T02:43:22.646Z,698
2022-11-19T02:44:22.458Z,862
2022-11-19T02:45:22.406Z,865
2022-11-19T02:46:22.487Z,733
2022-11-19T02:48:22.601Z,733
2022-11-19T02:49:22.408Z,879
2022-11-19T02:50:22.412Z,742
2022-11-19T02:51:22.416Z,871
2022-11-19T02:53:22.682Z,873
2022-11-19T02:54:22.463Z,865
2022-11-19T02:55:22.459Z,881
2022-11-19T02:56:22.413Z,742
2022-11-19T02:58:22.657Z,871
2022-11-19T02:59:22.464Z,709
2022-11-19T03:00:22.469Z,709
2022-11-19T03:01:22.538Z,767
2022-11-19T03:03:22.661Z,726
2022-11-19T03:04:22.463Z,752
2022-11-19T03:05:22.413Z,752
2022-11-19T03:06:22.422Z,816
2022-11-19T03:08:22.657Z,752
2022-11-19T03:09:22.412Z,921
2022-11-19T03:10:22.417Z,800
2022-11-19T03:11:22.496Z,870
2022-11-19T03:13:22.611Z,800
2022-11-19T03:14:22.472Z,742
2022-11-19T03:15:22.473Z,742
2022-11-19T03:16:22.472Z,742
2022-11-19T03:18:22.634Z,742
2022-11-19T03:19:22.469Z,733
2022-11-19T03:20:22.461Z,827
2022-11-19T03:21:22.414Z,775
2022-11-19T03:23:22.665Z,733
2022-11-19T03:24:22.421Z,688
2022-11-19T03:25:22.440Z,767
2022-11-19T03:26:22.468Z,784
2022-11-19T03:28:22.627Z,774
2022-11-19T03:29:22.420Z,688
2022-11-19T03:30:22.472Z,772
2022-11-19T03:31:22.472Z,688
2022-11-19T03:33:22.606Z,760
2022-11-19T03:34:22.427Z,750
2022-11-19T03:35:22.469Z,746
2022-11-19T03:36:22.431Z,767
2022-11-19T03:38:22.659Z,688
2022-11-19T03:39:22.684Z,763
2022-11-19T03:40:22.516Z,688
2022-11-19T03:41:22.471Z,767
2022-11-19T03:43:22.605Z,765
2022-11-19T03:44:22.427Z,744
2022-11-19T03:45:22.440Z,763
2022-11-19T03:46:22.427Z,688
2022-11-19T03:48:22.648Z,688
2022-11-19T03:49:22.426Z,639
2022-11-19T03:50:22.433Z,639
2022-11-19T03:51:22.427Z,639
2022-11-19T03:53:22.616Z,639
2022-11-19T03:54:22.480Z,779
2022-11-19T03:55:22.511Z,779
2022-11-19T03:56:22.486Z,805
2022-11-19T03:58:22.631Z,779
2022-11-19T03:59:25.516Z,759
2022-11-19T04:00:22.478Z,735
2022-11-19T04:01:22.498Z,779
2022-11-19T04:03:22.617Z,735
2022-11-19T04:04:22.428Z,719
2022-11-19T04:05:22.481Z,719
2022-11-19T04:06:22.488Z,719
2022-11-19T04:08:22.650Z,719
2022-11-19T04:09:22.674Z,774
2022-11-19T04:10:22.478Z,719
2022-11-19T04:12:22.491Z,776
2022-11-19T04:13:22.613Z,719
2022-11-19T04:14:22.433Z,719
2022-11-19T04:15:22.483Z,719
2022-11-19T04:16:22.437Z,719
2022-11-19T04:17:22.491Z,719
2022-11-19T04:18:22.641Z,719
2022-11-19T04:19:22.504Z,709
2022-11-19T04:20:22.484Z,709
2022-11-19T04:21:22.437Z,740
2022-11-19T04:22:22.434Z,709
2022-11-19T04:23:22.634Z,709
2022-11-19T04:24:22.439Z,709
2022-11-19T04:25:22.494Z,752
2022-11-19T04:26:22.505Z,709
2022-11-19T04:27:22.446Z,709
2022-11-19T04:28:22.623Z,740
2022-11-19T04:29:22.471Z,768
2022-11-19T04:30:22.453Z,768
2022-11-19T04:31:22.441Z,768
2022-11-19T04:32:22.490Z,768
2022-11-19T04:33:22.620Z,768
2022-11-19T04:34:22.439Z,719
2022-11-19T04:35:22.490Z,764
2022-11-19T04:36:22.450Z,719
2022-11-19T04:37:22.510Z,757
2022-11-19T04:38:22.615Z,757
2022-11-19T04:39:22.710Z,715
2022-11-19T04:40:22.498Z,709
2022-11-19T04:41:22.501Z,709
2022-11-19T04:42:22.455Z,727
2022-11-19T04:43:22.650Z,709
2022-11-19T04:44:22.444Z,735
2022-11-19T04:45:22.449Z,781
2022-11-19T04:46:22.445Z,735
2022-11-19T04:47:22.501Z,754
2022-11-19T04:48:22.645Z,766
2022-11-19T04:49:22.563Z,719
2022-11-19T04:50:22.491Z,719
2022-11-19T04:51:22.446Z,719
2022-11-19T04:52:22.444Z,719
2022-11-19T04:53:22.651Z,719
2022-11-19T04:54:22.528Z,719
2022-11-19T04:55:22.453Z,719
2022-11-19T04:56:22.452Z,719
2022-11-19T04:57:22.497Z,719
2022-11-19T04:58:22.651Z,719
2022-11-19T04:59:22.654Z,768
2022-11-19T05:00:22.450Z,768
2022-11-19T05:01:22.534Z,768
2022-11-19T05:02:22.446Z,768
2022-11-19T05:03:22.648Z,768
2022-11-19T05:04:22.508Z,719
2022-11-19T05:05:22.472Z,719
2022-11-19T05:06:22.451Z,719
2022-11-19T05:07:22.570Z,719
2022-11-19T05:08:22.630Z,719
2022-11-19T05:09:22.599Z,735
2022-11-19T05:10:22.453Z,735
2022-11-19T05:11:22.464Z,735
2022-11-19T05:12:22.449Z,737
2022-11-19T05:13:22.657Z,735
2022-11-19T05:14:24.767Z,668
2022-11-19T05:15:22.487Z,668
2022-11-19T05:16:22.452Z,668
2022-11-19T05:17:22.502Z,668
2022-11-19T05:18:22.653Z,668
2022-11-19T05:19:22.558Z,696
2022-11-19T05:20:22.508Z,690
2022-11-19T05:21:22.453Z,690
2022-11-19T05:22:22.458Z,690
2022-11-19T05:23:22.626Z,690
2022-11-19T05:24:22.454Z,690
2022-11-19T05:25:22.506Z,690
2022-11-19T05:26:22.533Z,690
2022-11-19T05:27:22.473Z,690
2022-11-19T05:28:33.031Z,690
2022-11-19T05:29:22.509Z,679
2022-11-19T05:30:22.454Z,679
2022-11-19T05:31:22.511Z,679
2022-11-19T05:32:22.450Z,679
2022-11-19T05:33:22.635Z,679
2022-11-19T05:34:22.509Z,779
2022-11-19T05:35:22.516Z,779
2022-11-19T05:36:22.462Z,779
2022-11-19T05:37:22.459Z,779
2022-11-19T05:38:22.658Z,779
2022-11-19T05:39:22.618Z,735
2022-11-19T05:40:22.465Z,735
2022-11-19T05:41:22.509Z,735
2022-11-19T05:42:22.463Z,735
2022-11-19T05:43:22.663Z,735
2022-11-19T05:44:22.463Z,735
2022-11-19T05:45:22.518Z,735
2022-11-19T05:46:22.476Z,735
2022-11-19T05:47:22.474Z,735
2022-11-19T05:48:22.644Z,735
2022-11-19T05:49:22.529Z,719
2022-11-19T05:50:22.512Z,719
2022-11-19T05:51:22.465Z,719
2022-11-19T05:52:22.473Z,719
2022-11-19T05:53:22.726Z,719
2022-11-19T05:54:22.555Z,679
2022-11-19T05:55:22.561Z,679
2022-11-19T05:56:22.510Z,679
2022-11-19T05:57:22.516Z,679
2022-11-19T05:58:22.625Z,679
2022-11-19T05:59:22.730Z,735
2022-11-19T06:00:22.517Z,735
2022-11-19T06:01:22.487Z,735
2022-11-19T06:02:22.520Z,735
2022-11-19T06:03:22.640Z,735
2022-11-19T06:04:22.465Z,719
2022-11-19T06:05:22.514Z,719
2022-11-19T06:06:22.530Z,719
2022-11-19T06:07:22.503Z,719
2022-11-19T06:08:22.661Z,719
2022-11-19T06:09:22.651Z,735
2022-11-19T06:10:22.483Z,735
2022-11-19T06:11:22.473Z,735
2022-11-19T06:12:22.523Z,735
2022-11-19T06:13:22.666Z,735
2022-11-19T06:14:22.532Z,735
2022-11-19T06:15:22.469Z,735
2022-11-19T06:16:22.471Z,735
2022-11-19T06:17:22.543Z,735
2022-11-19T06:18:22.657Z,735
2022-11-19T06:19:22.672Z,679
2022-11-19T06:20:22.520Z,679
2022-11-19T06:21:22.506Z,679
2022-11-19T06:22:22.523Z,679
2022-11-19T06:23:22.658Z,679
2022-11-19T06:24:22.554Z,679
2022-11-19T06:25:22.560Z,679
2022-11-19T06:26:22.525Z,679
2022-11-19T06:27:22.527Z,679
2022-11-19T06:28:22.654Z,679
2022-11-19T06:29:22.786Z,690
2022-11-19T06:30:22.478Z,690
2022-11-19T06:31:22.531Z,690
2022-11-19T06:32:22.517Z,690
2022-11-19T06:33:22.663Z,690
2022-11-19T06:34:22.525Z,748
2022-11-19T06:35:22.535Z,748
2022-11-19T06:36:23.166Z,748
2022-11-19T06:37:22.535Z,748
2022-11-19T06:38:22.657Z,748
2022-11-19T06:39:22.736Z,748
2022-11-19T06:40:22.534Z,748
2022-11-19T06:41:22.489Z,748
2022-11-19T06:42:22.524Z,748
2022-11-19T06:43:22.680Z,748
2022-11-19T06:44:22.503Z,735
2022-11-19T06:45:22.473Z,735
2022-11-19T06:46:22.531Z,735
2022-11-19T06:47:22.534Z,735
2022-11-19T06:48:22.683Z,735
2022-11-19T06:49:22.641Z,700
2022-11-19T06:50:22.528Z,700
2022-11-19T06:51:22.504Z,700
2022-11-19T06:52:22.530Z,700
2022-11-19T06:53:22.676Z,700
2022-11-19T06:54:22.527Z,679
2022-11-19T06:55:22.499Z,679
2022-11-19T06:56:22.530Z,679
2022-11-19T06:57:22.578Z,679
2022-11-19T06:58:22.688Z,679
2022-11-19T06:59:22.533Z,679
2022-11-19T07:00:22.542Z,679
2022-11-19T07:01:22.611Z,679
2022-11-19T07:02:22.500Z,679
2022-11-19T07:03:22.664Z,679
2022-11-19T07:04:22.536Z,871
2022-11-19T07:05:22.490Z,871
2022-11-19T07:06:22.482Z,871
2022-11-19T07:07:22.637Z,871
2022-11-19T07:08:22.691Z,871
2022-11-19T07:09:22.488Z,759
2022-11-19T07:10:22.495Z,759
2022-11-19T07:11:22.485Z,759
2022-11-19T07:12:22.553Z,759
2022-11-19T07:13:22.689Z,759
2022-11-19T07:14:22.557Z,712
2022-11-19T07:15:22.567Z,712
2022-11-19T07:16:22.556Z,712
2022-11-19T07:17:22.487Z,712
2022-11-19T07:18:22.690Z,712
2022-11-19T07:19:22.599Z,759
2022-11-19T07:20:22.547Z,759
2022-11-19T07:21:22.551Z,759
2022-11-19T07:22:22.493Z,759
2022-11-19T07:23:22.739Z,759
2022-11-19T07:24:22.495Z,700
2022-11-19T07:25:22.492Z,700
2022-11-19T07:26:22.504Z,700
2022-11-19T07:27:22.546Z,700
2022-11-19T07:28:22.706Z,700
2022-11-19T07:29:22.703Z,759
2022-11-19T07:30:22.544Z,759
2022-11-19T07:31:22.553Z,759
2022-11-19T07:32:22.497Z,759
2022-11-19T07:33:22.697Z,759
2022-11-19T07:34:22.543Z,700
2022-11-19T07:35:22.552Z,700
2022-11-19T07:36:22.490Z,700
2022-11-19T07:37:22.552Z,700
2022-11-19T07:38:22.693Z,700
2022-11-19T07:39:22.777Z,700
2022-11-19T07:40:22.551Z,700
2022-11-19T07:41:22.545Z,700
2022-11-19T07:42:22.551Z,700
2022-11-19T07:43:22.670Z,700
2022-11-19T07:44:22.585Z,735
2022-11-19T07:45:22.500Z,735
2022-11-19T07:46:22.537Z,735
2022-11-19T07:47:22.543Z,735
2022-11-19T07:48:22.735Z,735
2022-11-19T07:49:22.792Z,805
2022-11-19T07:50:22.546Z,805
2022-11-19T07:51:22.503Z,805
2022-11-19T07:52:22.552Z,805
2022-11-19T07:53:22.690Z,805
2022-11-19T07:54:22.557Z,770
2022-11-19T07:55:22.505Z,770
2022-11-19T07:56:22.504Z,770
2022-11-19T07:57:25.932Z,770
2022-11-19T07:58:22.689Z,770
2022-11-19T07:59:22.749Z,818
2022-11-19T08:00:22.548Z,818
2022-11-19T08:01:22.614Z,818
2022-11-19T08:02:22.522Z,818
2022-11-19T08:03:22.702Z,818
2022-11-19T08:04:22.560Z,759
2022-11-19T08:05:22.512Z,759
2022-11-19T08:06:22.556Z,759
2022-11-19T08:07:22.624Z,759
2022-11-19T08:08:22.701Z,759
2022-11-19T08:09:22.503Z,748
2022-11-19T08:10:22.516Z,748
2022-11-19T08:11:22.559Z,748
2022-11-19T08:12:22.560Z,748
2022-11-19T08:13:22.727Z,748
2022-11-19T08:14:22.588Z,759
2022-11-19T08:15:22.561Z,759
2022-11-19T08:16:22.565Z,759
2022-11-19T08:17:22.558Z,759
2022-11-19T08:18:25.051Z,759
2022-11-19T08:19:22.908Z,712
2022-11-19T08:20:22.511Z,712
2022-11-19T08:21:22.502Z,712
2022-11-19T08:22:22.559Z,712
2022-11-19T08:23:22.694Z,712
2022-11-19T08:24:22.748Z,871
2022-11-19T08:25:22.562Z,871
2022-11-19T08:26:22.565Z,871
2022-11-19T08:27:22.578Z,871
2022-11-19T08:28:22.695Z,871
2022-11-19T08:29:22.559Z,871
2022-11-19T08:30:22.553Z,871
2022-11-19T08:31:22.525Z,871
2022-11-19T08:32:22.567Z,871
2022-11-19T08:33:22.699Z,871
2022-11-19T08:34:22.796Z,770
2022-11-19T08:35:22.520Z,770
2022-11-19T08:36:22.595Z,770
2022-11-19T08:37:22.565Z,770
2022-11-19T08:38:22.686Z,770
2022-11-19T08:39:22.598Z,728
2022-11-19T08:40:22.570Z,728
2022-11-19T08:41:22.511Z,728
2022-11-19T08:42:22.559Z,728
2022-11-19T08:43:22.719Z,728
2022-11-19T08:44:22.913Z,685
2022-11-19T08:45:22.568Z,685
2022-11-19T08:46:22.521Z,685
2022-11-19T08:47:22.568Z,685
2022-11-19T08:48:22.726Z,685
2022-11-19T08:49:22.520Z,659
2022-11-19T08:50:22.554Z,659
2022-11-19T08:51:22.569Z,659
2022-11-19T08:52:22.518Z,659
2022-11-19T08:53:22.689Z,659
2022-11-19T08:54:22.836Z,711
2022-11-19T08:55:22.608Z,711
2022-11-19T08:56:22.572Z,711
2022-11-19T08:57:22.573Z,711
2022-11-19T08:58:22.726Z,711
2022-11-19T08:59:22.793Z,685
2022-11-19T09:00:22.628Z,685
2022-11-19T09:01:22.641Z,685
2022-11-19T09:02:22.599Z,685
2022-11-19T09:03:22.710Z,685
2022-11-19T09:04:22.780Z,653
2022-11-19T09:05:22.525Z,653
2022-11-19T09:06:22.528Z,653
2022-11-19T09:07:22.626Z,653
2022-11-19T09:08:22.719Z,653
2022-11-19T09:09:22.520Z,700
2022-11-19T09:10:22.543Z,700
2022-11-19T09:11:22.602Z,700
2022-11-19T09:12:22.523Z,700
2022-11-19T09:13:22.734Z,700
2022-11-19T09:14:22.657Z,624
2022-11-19T09:15:22.525Z,624
2022-11-19T09:16:22.522Z,624
2022-11-19T09:17:22.534Z,624
2022-11-19T09:18:22.770Z,624
2022-11-19T09:19:22.530Z,633
2022-11-19T09:20:22.533Z,633
2022-11-19T09:21:22.577Z,633
2022-11-19T09:22:22.537Z,633
2022-11-19T09:23:22.741Z,633
2022-11-19T09:24:22.619Z,633
2022-11-19T09:25:22.631Z,633
2022-11-19T09:26:22.533Z,633
2022-11-19T09:27:22.528Z,633
2022-11-19T09:28:22.732Z,633
2022-11-19T09:29:22.526Z,624
2022-11-19T09:30:22.621Z,624
2022-11-19T09:31:22.529Z,624
2022-11-19T09:32:25.459Z,624
2022-11-19T09:33:22.789Z,624
2022-11-19T09:34:22.648Z,581
2022-11-19T09:35:22.544Z,581
2022-11-19T09:36:22.580Z,581
2022-11-19T09:37:22.588Z,581
2022-11-19T09:38:22.774Z,581
2022-11-19T09:39:22.557Z,694
2022-11-19T09:40:22.599Z,694
2022-11-19T09:41:22.538Z,694
2022-11-19T09:42:22.540Z,694
2022-11-19T09:43:22.741Z,694
2022-11-19T09:44:22.754Z,681
2022-11-19T09:45:22.694Z,681
2022-11-19T09:46:22.547Z,681
2022-11-19T09:47:22.533Z,681
2022-11-19T09:48:22.824Z,681
2022-11-19T09:49:22.591Z,646
2022-11-19T09:50:22.586Z,646
2022-11-19T09:51:22.595Z,646
2022-11-19T09:52:22.592Z,646
2022-11-19T09:53:22.717Z,646
2022-11-19T09:54:22.752Z,681
2022-11-19T09:55:22.617Z,681
2022-11-19T09:56:22.546Z,681
2022-11-19T09:57:22.597Z,681
2022-11-19T09:58:22.744Z,681
2022-11-19T09:59:22.599Z,633
2022-11-19T10:00:22.541Z,633
2022-11-19T10:01:22.552Z,633
2022-11-19T10:02:22.575Z,633
2022-11-19T10:03:22.766Z,633
2022-11-19T10:04:22.678Z,604
2022-11-19T10:05:22.568Z,604
2022-11-19T10:06:22.614Z,604
2022-11-19T10:07:22.596Z,604
2022-11-19T10:08:22.739Z,604
2022-11-19T10:09:22.590Z,646
2022-11-19T10:10:22.542Z,646
2022-11-19T10:11:22.593Z,646
2022-11-19T10:12:22.553Z,646
2022-11-19T10:13:22.728Z,646
2022-11-19T10:14:22.678Z,604
2022-11-19T10:15:22.599Z,604
2022-11-19T10:16:22.551Z,604
2022-11-19T10:17:22.554Z,604
2022-11-19T10:18:22.755Z,604
2022-11-19T10:19:22.734Z,593
2022-11-19T10:20:22.593Z,593
2022-11-19T10:21:22.625Z,593
2022-11-19T10:22:22.604Z,593
2022-11-19T10:23:22.769Z,593
2022-11-19T10:24:22.712Z,624
2022-11-19T10:25:22.606Z,624
2022-11-19T10:26:22.595Z,624
2022-11-19T10:27:22.608Z,624
2022-11-19T10:28:22.733Z,624
2022-11-19T10:29:22.930Z,681
2022-11-19T10:30:22.652Z,681
2022-11-19T10:31:22.600Z,681
2022-11-19T10:32:22.611Z,681
2022-11-19T10:33:22.797Z,681
2022-11-19T10:34:22.605Z,624
2022-11-19T10:35:22.554Z,624
2022-11-19T10:36:22.550Z,624
2022-11-19T10:37:22.604Z,624
2022-11-19T10:38:22.725Z,624
2022-11-19T10:39:22.829Z,624
2022-11-19T10:40:22.556Z,624
2022-11-19T10:41:22.602Z,624
2022-11-19T10:42:22.610Z,624
2022-11-19T10:43:23.535Z,624
2022-11-19T10:44:22.565Z,668
2022-11-19T10:45:22.632Z,668
2022-11-19T10:46:22.608Z,668
2022-11-19T10:47:22.556Z,668
2022-11-19T10:48:22.761Z,668
2022-11-19T10:49:22.607Z,659
2022-11-19T10:50:22.560Z,611
2022-11-19T10:51:22.557Z,611
2022-11-19T10:52:22.659Z,611
2022-11-19T10:53:22.760Z,611
2022-11-19T10:54:22.558Z,698
2022-11-19T10:55:22.569Z,702
2022-11-19T10:56:22.561Z,688
2022-11-19T10:57:22.607Z,717
2022-11-19T10:58:22.763Z,668
2022-11-19T10:59:22.770Z,611
2022-11-19T11:00:22.612Z,611
2022-11-19T11:01:22.688Z,646
2022-11-19T11:02:26.584Z,653
2022-11-19T11:03:22.825Z,637
2022-11-19T11:04:22.563Z,665
2022-11-19T11:05:22.633Z,643
2022-11-19T11:06:22.568Z,643
2022-11-19T11:08:22.768Z,669
2022-11-19T11:09:22.648Z,599
2022-11-19T11:10:22.625Z,652
2022-11-19T11:11:22.617Z,640
2022-11-19T11:12:22.627Z,599
2022-11-19T11:13:22.772Z,599
2022-11-19T11:14:22.564Z,668
2022-11-19T11:15:22.623Z,668
2022-11-19T11:16:22.562Z,668
2022-11-19T11:17:22.630Z,668
2022-11-19T11:18:22.752Z,668
2022-11-19T11:19:22.811Z,668
2022-11-19T11:20:22.647Z,668
2022-11-19T11:21:22.647Z,668
2022-11-19T11:22:22.572Z,668
2022-11-19T11:23:22.782Z,668
2022-11-19T11:24:22.569Z,700
2022-11-19T11:25:22.575Z,700
2022-11-19T11:26:22.617Z,700
2022-11-19T11:27:22.664Z,700
2022-11-19T11:28:22.751Z,700
2022-11-19T11:29:22.628Z,653
2022-11-19T11:30:22.622Z,653
2022-11-19T11:31:22.626Z,653
2022-11-19T11:33:22.778Z,653
2022-11-19T11:34:22.653Z,561
2022-11-19T11:35:22.640Z,561
2022-11-19T11:36:22.570Z,561
2022-11-19T11:37:22.620Z,561
2022-11-19T11:38:22.762Z,561
2022-11-19T11:39:22.577Z,668
2022-11-19T11:40:22.622Z,668
2022-11-19T11:42:22.623Z,668
2022-11-19T11:43:22.761Z,668
2022-11-19T11:44:22.575Z,653
2022-11-19T11:45:22.588Z,653
2022-11-19T11:46:22.621Z,653
2022-11-19T11:47:22.582Z,653
2022-11-19T11:48:22.782Z,653
2022-11-19T11:49:22.808Z,593
2022-11-19T11:50:22.631Z,593
2022-11-19T11:51:22.629Z,593
2022-11-19T11:52:22.616Z,593
2022-11-19T11:53:22.758Z,593
2022-11-19T11:54:22.633Z,599
2022-11-19T11:55:22.582Z,599
2022-11-19T11:56:22.633Z,599
2022-11-19T11:57:22.587Z,599
2022-11-19T11:58:22.781Z,599
2022-11-19T11:59:22.665Z,546
2022-11-19T12:00:22.583Z,546
2022-11-19T12:01:22.647Z,546
2022-11-19T12:02:22.718Z,546
2022-11-19T12:03:22.783Z,546
2022-11-19T12:04:22.655Z,593
2022-11-19T12:05:22.580Z,593
2022-11-19T12:06:22.637Z,593
2022-11-19T12:07:22.678Z,593
2022-11-19T12:08:26.630Z,593
2022-11-19T12:09:22.736Z,593
2022-11-19T12:10:22.644Z,593
2022-11-19T12:11:22.588Z,593
2022-11-19T12:13:22.791Z,593
2022-11-19T12:14:22.638Z,556
2022-11-19T12:15:22.589Z,556
2022-11-19T12:16:22.632Z,556
2022-11-19T12:17:22.660Z,556
2022-11-19T12:18:22.791Z,556
2022-11-19T12:19:22.836Z,546
2022-11-19T12:20:22.585Z,546
2022-11-19T12:21:22.631Z,546
2022-11-19T12:22:22.689Z,546
2022-11-19T12:23:22.802Z,546
2022-11-19T12:24:22.664Z,604
2022-11-19T12:25:22.652Z,604
2022-11-19T12:26:22.640Z,604
2022-11-19T12:28:22.797Z,604
2022-11-19T12:29:22.760Z,593
2022-11-19T12:30:22.640Z,593
2022-11-19T12:31:25.137Z,593
2022-11-19T12:32:22.652Z,593
2022-11-19T12:33:22.781Z,593
2022-11-19T12:34:22.600Z,556
2022-11-19T12:35:22.641Z,556
2022-11-19T12:36:22.651Z,556
2022-11-19T12:37:22.644Z,556
2022-11-19T12:38:22.771Z,556
2022-11-19T12:39:22.595Z,556
2022-11-19T12:40:22.650Z,556
2022-11-19T12:41:22.591Z,556
2022-11-19T12:42:22.674Z,556
2022-11-19T12:43:22.777Z,556
2022-11-19T12:44:22.655Z,593
2022-11-19T12:45:22.592Z,593
2022-11-19T12:46:22.654Z,593
2022-11-19T12:48:22.803Z,593
2022-11-19T12:49:22.866Z,536
2022-11-19T12:50:22.677Z,536
2022-11-19T12:51:22.674Z,536
2022-11-19T12:53:22.805Z,536
2022-11-19T12:54:30.437Z,546
2022-11-19T12:55:22.661Z,546
2022-11-19T12:56:22.651Z,546
2022-11-19T12:58:22.846Z,546
2022-11-19T12:59:22.785Z,581
2022-11-19T13:00:22.648Z,581
2022-11-19T13:01:22.672Z,581
2022-11-19T13:02:22.603Z,581
2022-11-19T13:03:22.797Z,581
2022-11-19T13:04:22.652Z,571
2022-11-19T13:05:22.664Z,571
2022-11-19T13:06:22.656Z,571
2022-11-19T13:07:22.852Z,571
2022-11-19T13:08:22.782Z,571
2022-11-19T13:09:22.779Z,611
2022-11-19T13:10:22.685Z,611
2022-11-19T13:11:22.602Z,611
2022-11-19T13:13:22.811Z,611
2022-11-19T13:14:22.660Z,633
2022-11-19T13:15:22.665Z,633
2022-11-19T13:16:22.601Z,633
2022-11-19T13:18:22.836Z,633
2022-11-19T13:19:22.907Z,599
2022-11-19T13:20:22.662Z,599
2022-11-19T13:21:22.655Z,599
2022-11-19T13:23:22.808Z,599
2022-11-19T13:24:22.693Z,624
2022-11-19T13:25:22.608Z,624
2022-11-19T13:26:22.611Z,624
2022-11-19T13:28:22.814Z,624
2022-11-19T13:29:22.797Z,571
2022-11-19T13:30:22.672Z,571
2022-11-19T13:31:22.617Z,571
2022-11-19T13:32:22.614Z,571
2022-11-19T13:33:22.793Z,571
2022-11-19T13:34:22.660Z,599
2022-11-19T13:35:22.670Z,599
2022-11-19T13:36:22.617Z,599
2022-11-19T13:38:22.794Z,599
2022-11-19T13:39:22.913Z,604
2022-11-19T13:40:22.612Z,604
2022-11-19T13:41:22.697Z,604
2022-11-19T13:43:31.869Z,604
2022-11-19T13:44:22.615Z,546
2022-11-19T13:45:22.623Z,546
2022-11-19T13:46:22.672Z,546
2022-11-19T13:48:22.799Z,546
2022-11-19T13:49:22.857Z,681
2022-11-19T13:50:22.670Z,681
2022-11-19T13:51:22.623Z,681
2022-11-19T13:53:22.848Z,681
2022-11-19T13:54:22.676Z,624
2022-11-19T13:55:22.622Z,624
2022-11-19T13:56:22.618Z,624
2022-11-19T13:58:22.846Z,624
2022-11-19T13:59:22.791Z,611
2022-11-19T14:00:22.681Z,611
2022-11-19T14:01:22.655Z,611
2022-11-19T14:03:22.836Z,611
2022-11-19T14:04:22.674Z,599
2022-11-19T14:05:22.714Z,599
2022-11-19T14:06:22.675Z,599
2022-11-19T14:08:22.815Z,599
2022-11-19T14:09:22.947Z,604
2022-11-19T14:10:22.677Z,604
2022-11-19T14:11:22.662Z,604
2022-11-19T14:13:22.825Z,604
2022-11-19T14:14:22.633Z,599
2022-11-19T14:15:22.690Z,599
2022-11-19T14:16:22.675Z,599
2022-11-19T14:18:22.804Z,599
2022-11-19T14:19:22.791Z,631
2022-11-19T14:20:22.671Z,631
2022-11-19T14:21:22.684Z,631
2022-11-19T14:23:22.840Z,631
2022-11-19T14:24:22.649Z,643
2022-11-19T14:25:22.684Z,643
2022-11-19T14:26:22.685Z,643
2022-11-19T14:28:22.823Z,643
2022-11-19T14:29:22.955Z,620
2022-11-19T14:30:22.682Z,620
2022-11-19T14:31:22.628Z,620
2022-11-19T14:33:22.835Z,620
2022-11-19T14:34:22.687Z,599
2022-11-19T14:35:22.694Z,599
2022-11-19T14:36:22.682Z,599
2022-11-19T14:38:22.823Z,599
2022-11-19T14:39:23.013Z,679
2022-11-19T14:40:22.646Z,679
2022-11-19T14:41:22.684Z,679
2022-11-19T14:43:22.821Z,679
2022-11-19T14:44:22.632Z,679
2022-11-19T14:45:22.642Z,679
2022-11-19T14:46:22.633Z,679
2022-11-19T14:48:22.818Z,679
2022-11-19T14:49:23.024Z,719
2022-11-19T14:50:22.688Z,719
2022-11-19T14:51:22.643Z,719
2022-11-19T14:53:22.827Z,719
2022-11-19T14:54:25.993Z,735
2022-11-19T14:55:22.727Z,735
2022-11-19T14:56:22.674Z,735
2022-11-19T14:58:22.838Z,735
2022-11-19T14:59:22.724Z,679
2022-11-19T15:00:22.662Z,679
2022-11-19T15:01:22.750Z,679
2022-11-19T15:03:22.915Z,679
2022-11-19T15:04:22.707Z,748
2022-11-19T15:05:22.744Z,748
2022-11-19T15:06:22.690Z,748